createdAt,value
2022-09-16T00:00:24.828Z,14.30
2022-09-16T00:02:55.010Z,14.30
2022-09-16T00:05:21.805Z,14.30
2022-09-16T00:07:48.439Z,14.30
2022-09-16T00:10:15.112Z,14.30
2022-09-16T00:12:41.908Z,14.30
2022-09-16T00:15:09.112Z,14.40
2022-09-16T00:17:36.030Z,14.30
2022-09-16T00:20:02.981Z,14.30
2022-09-16T00:22:30.013Z,14.40
2022-09-16T00:24:56.777Z,14.40
2022-09-16T00:27:23.446Z,14.40
2022-09-16T00:29:50.434Z,14.40
2022-09-16T00:32:17.215Z,14.40
2022-09-16T00:34:43.914Z,14.40
2022-09-16T00:37:10.572Z,14.40
2022-09-16T00:39:37.637Z,14.40
2022-09-16T00:42:04.585Z,14.40
2022-09-16T00:44:53.343Z,14.40
2022-09-16T00:47:45.588Z,14.40
2022-09-16T00:50:29.752Z,14.40
2022-09-16T00:52:56.437Z,14.40
2022-09-16T00:55:25.711Z,14.30
2022-09-16T00:57:52.929Z,14.30
2022-09-16T01:00:19.661Z,14.30
2022-09-16T01:02:46.491Z,14.30
2022-09-16T01:05:18.987Z,14.30
2022-09-16T01:07:49.660Z,14.30
2022-09-16T01:10:18.753Z,14.20
2022-09-16T01:12:50.282Z,14.20
2022-09-16T01:15:17.976Z,14.20
2022-09-16T01:18:02.923Z,14.20
2022-09-16T01:21:00.779Z,14.20
2022-09-16T01:24:01.480Z,14.20
2022-09-16T01:26:37.004Z,14.20
2022-09-16T01:29:06.445Z,14.20
2022-09-16T01:31:36.162Z,14.10
2022-09-16T01:34:24.334Z,14.10
2022-09-16T01:37:06.054Z,14.10
2022-09-16T01:39:43.287Z,14.10
2022-09-16T01:42:38.330Z,14.10
2022-09-16T01:45:42.049Z,14.00
2022-09-16T01:48:33.609Z,14.00
2022-09-16T01:51:14.882Z,13.90
2022-09-16T01:53:47.116Z,13.90
2022-09-16T01:56:27.349Z,13.80
2022-09-16T01:59:01.902Z,13.80
2022-09-16T02:01:35.735Z,13.80
2022-09-16T02:04:05.929Z,13.70
2022-09-16T02:06:32.603Z,13.70
2022-09-16T02:09:01.311Z,13.60
2022-09-16T02:11:27.966Z,13.60
2022-09-16T02:13:56.193Z,13.50
2022-09-16T02:16:58.153Z,13.40
2022-09-16T02:19:30.427Z,13.30
2022-09-16T02:21:57.328Z,13.30
2022-09-16T02:24:24.155Z,13.20
2022-09-16T02:26:55.138Z,13.20
2022-09-16T02:29:23.708Z,13.10
2022-09-16T02:31:53.628Z,13.10
2022-09-16T02:34:26.206Z,13.10
2022-09-16T02:36:56.425Z,13.10
2022-09-16T02:39:28.570Z,13.00
2022-09-16T02:41:56.971Z,13.00
2022-09-16T02:44:24.347Z,13.00
2022-09-16T02:47:11.122Z,13.00
2022-09-16T02:49:56.576Z,12.90
2022-09-16T02:52:36.976Z,12.90
2022-09-16T02:55:13.952Z,12.90
2022-09-16T02:57:41.290Z,12.80
2022-09-16T03:00:08.934Z,12.80
2022-09-16T03:02:35.685Z,12.80
2022-09-16T03:05:02.350Z,12.80
2022-09-16T03:07:29.022Z,12.70
2022-09-16T03:09:55.667Z,12.80
2022-09-16T03:12:35.064Z,12.80
2022-09-16T03:15:20.238Z,12.70
2022-09-16T03:18:06.304Z,12.80
2022-09-16T03:21:07.924Z,12.80
2022-09-16T03:24:03.441Z,12.80
2022-09-16T03:27:02.491Z,12.80
2022-09-16T03:29:39.796Z,12.80
2022-09-16T03:32:21.031Z,12.80
2022-09-16T03:34:49.841Z,12.70
2022-09-16T03:37:17.588Z,12.70
2022-09-16T03:39:49.621Z,12.80
2022-09-16T03:42:17.311Z,12.70
2022-09-16T03:44:43.960Z,12.70
2022-09-16T03:47:10.682Z,12.70
2022-09-16T03:49:37.540Z,12.70
2022-09-16T03:52:05.552Z,12.70
2022-09-16T03:54:32.808Z,12.60
2022-09-16T03:57:00.485Z,12.60
2022-09-16T03:59:27.763Z,12.60
2022-09-16T04:01:54.619Z,12.60
2022-09-16T04:04:21.608Z,12.60
2022-09-16T04:06:48.288Z,12.60
2022-09-16T04:09:15.557Z,12.60
2022-09-16T04:11:42.257Z,12.50
2022-09-16T04:14:08.981Z,12.50
2022-09-16T04:16:35.954Z,12.40
2022-09-16T04:19:02.641Z,12.40
2022-09-16T04:21:29.499Z,12.40
2022-09-16T04:23:56.170Z,12.40
2022-09-16T04:26:22.826Z,12.40
2022-09-16T04:28:51.714Z,12.40
2022-09-16T04:31:18.506Z,12.30
2022-09-16T04:33:45.246Z,12.30
2022-09-16T04:36:13.535Z,12.20
2022-09-16T04:38:41.049Z,12.30
2022-09-16T04:41:09.460Z,12.20
2022-09-16T04:43:36.226Z,12.20
2022-09-16T04:46:03.502Z,12.10
2022-09-16T04:48:30.499Z,12.10
2022-09-16T04:51:02.772Z,12.10
2022-09-16T04:53:29.524Z,12.00
2022-09-16T04:56:04.114Z,12.00
2022-09-16T04:58:31.016Z,12.00
2022-09-16T05:01:04.251Z,12.00
2022-09-16T05:03:30.952Z,12.00
2022-09-16T05:06:05.368Z,12.00
2022-09-16T05:08:35.337Z,12.00
2022-09-16T05:11:18.876Z,12.00
2022-09-16T05:13:45.571Z,12.00
2022-09-16T05:16:16.724Z,11.90
2022-09-16T05:18:44.330Z,11.90
2022-09-16T05:21:15.924Z,11.90
2022-09-16T05:23:46.723Z,11.80
2022-09-16T05:26:22.050Z,11.80
2022-09-16T05:28:50.864Z,11.80
2022-09-16T05:31:22.656Z,11.80
2022-09-16T05:34:03.551Z,11.80
2022-09-16T05:36:32.523Z,11.80
2022-09-16T05:41:46.125Z,11.70
2022-09-16T05:44:13.256Z,11.70
2022-09-16T05:46:43.460Z,11.60
2022-09-16T05:49:10.365Z,11.60
2022-09-16T05:51:38.100Z,11.60
2022-09-16T05:54:04.875Z,11.60
2022-09-16T05:56:31.543Z,11.60
2022-09-16T05:58:59.996Z,11.60
2022-09-16T06:01:29.344Z,11.60
2022-09-16T06:03:56.396Z,11.60
2022-09-16T06:06:24.801Z,11.60
2022-09-16T06:08:53.657Z,11.60
2022-09-16T06:11:20.440Z,11.70
2022-09-16T06:13:47.183Z,11.70
2022-09-16T06:16:14.682Z,11.70
2022-09-16T06:18:41.484Z,11.80
2022-09-16T06:21:12.131Z,11.80
2022-09-16T06:23:39.693Z,11.80
2022-09-16T06:26:16.652Z,11.80
2022-09-16T06:28:43.370Z,11.80
2022-09-16T06:31:14.711Z,11.70
2022-09-16T06:33:41.493Z,11.80
2022-09-16T06:36:16.392Z,11.70
2022-09-16T06:38:43.582Z,11.70
2022-09-16T06:41:11.192Z,11.70
2022-09-16T06:43:37.935Z,11.70
2022-09-16T06:46:06.346Z,11.70
2022-09-16T06:48:33.992Z,11.70
2022-09-16T06:51:02.002Z,11.70
2022-09-16T06:53:29.149Z,11.80
2022-09-16T06:55:56.259Z,11.70
2022-09-16T06:58:23.072Z,11.80
2022-09-16T07:00:51.169Z,11.80
2022-09-16T07:03:18.078Z,11.90
2022-09-16T07:05:55.611Z,11.90
2022-09-16T07:08:22.315Z,11.90
2022-09-16T07:10:59.432Z,12.00
2022-09-16T07:13:26.304Z,12.00
2022-09-16T07:18:39.915Z,12.20
2022-09-16T07:21:07.734Z,12.30
2022-09-16T07:23:36.015Z,12.40
2022-09-16T07:26:08.020Z,12.50
2022-09-16T07:28:35.271Z,12.60
2022-09-16T07:31:06.677Z,12.70
2022-09-16T07:33:37.188Z,12.80
2022-09-16T07:36:05.283Z,13.00
2022-09-16T07:38:32.211Z,13.10
2022-09-16T07:41:09.723Z,13.20
2022-09-16T07:43:36.420Z,13.30
2022-09-16T07:46:03.192Z,13.30
2022-09-16T07:48:34.537Z,13.40
2022-09-16T07:51:06.774Z,13.50
2022-09-16T07:53:33.735Z,13.50
2022-09-16T07:56:23.481Z,13.50
2022-09-16T07:58:50.202Z,13.60
2022-09-16T08:01:17.030Z,13.80
2022-09-16T08:03:44.922Z,13.90
2022-09-16T08:06:16.814Z,13.90
2022-09-16T08:08:44.198Z,14.00
2022-09-16T08:11:12.394Z,14.10
2022-09-16T08:13:39.126Z,14.20
2022-09-16T08:16:08.610Z,14.20
2022-09-16T08:18:35.278Z,14.20
2022-09-16T08:21:09.379Z,14.30
2022-09-16T08:23:36.919Z,14.40
2022-09-16T08:26:08.428Z,14.30
2022-09-16T08:28:45.319Z,14.40
2022-09-16T08:31:18.487Z,14.50
2022-09-16T08:33:45.358Z,14.60
2022-09-16T08:36:15.226Z,14.60
2022-09-16T08:38:42.962Z,14.60
2022-09-16T08:41:25.635Z,14.50
2022-09-16T08:44:05.706Z,14.60
2022-09-16T08:46:32.372Z,14.70
2022-09-16T08:49:15.358Z,14.60
2022-09-16T08:51:42.016Z,14.60
2022-09-16T08:54:17.042Z,14.70
2022-09-16T08:56:44.976Z,14.60
2022-09-16T08:59:18.482Z,14.50
2022-09-16T09:01:53.317Z,14.40
2022-09-16T09:04:20.526Z,14.30
2022-09-16T09:07:10.550Z,14.30
2022-09-16T09:09:43.724Z,14.40
2022-09-16T09:12:15.364Z,14.40
2022-09-16T09:15:08.374Z,14.40
2022-09-16T09:17:48.172Z,14.50
2022-09-16T09:20:21.036Z,14.70
2022-09-16T09:23:32.132Z,14.70
2022-09-16T09:26:08.758Z,14.80
2022-09-16T09:29:07.957Z,15.00
2022-09-16T09:31:56.351Z,15.10
2022-09-16T09:34:41.021Z,15.20
2022-09-16T09:37:56.906Z,15.30
2022-09-16T09:40:42.661Z,15.40
2022-09-16T09:43:31.940Z,15.40
2022-09-16T09:46:10.101Z,15.30
2022-09-16T09:48:56.507Z,15.60
2022-09-16T09:51:35.255Z,15.80
2022-09-16T09:54:23.149Z,15.80
2022-09-16T09:56:49.868Z,15.70
2022-09-16T09:59:34.549Z,15.70
2022-09-16T10:02:01.914Z,15.80
2022-09-16T10:04:37.561Z,15.80
2022-09-16T10:07:04.501Z,15.90
2022-09-16T10:09:31.534Z,15.80
2022-09-16T10:11:59.513Z,15.80
2022-09-16T10:14:34.417Z,15.60
2022-09-16T10:17:06.890Z,15.60
2022-09-16T10:19:38.868Z,15.70
2022-09-16T10:22:10.797Z,15.90
2022-09-16T10:24:39.743Z,15.80
2022-09-16T10:27:28.242Z,15.70
2022-09-16T10:30:07.601Z,15.80
2022-09-16T10:32:48.894Z,15.70
2022-09-16T10:35:19.735Z,15.70
2022-09-16T10:38:12.014Z,15.80
2022-09-16T10:40:53.663Z,15.80
2022-09-16T10:43:20.330Z,15.90
2022-09-16T10:45:49.121Z,16.00
2022-09-16T10:48:17.267Z,15.90
2022-09-16T10:51:00.857Z,16.10
2022-09-16T10:53:42.698Z,16.20
2022-09-16T10:56:18.314Z,16.20
2022-09-16T10:58:45.052Z,16.20
2022-09-16T11:01:40.150Z,16.30
2022-09-16T11:04:46.546Z,16.40
2022-09-16T11:07:13.600Z,16.40
2022-09-16T11:10:02.458Z,16.50
2022-09-16T11:12:33.567Z,16.60
2022-09-16T11:15:18.328Z,16.40
2022-09-16T11:18:04.879Z,16.40
2022-09-16T11:20:45.182Z,16.20
2022-09-16T11:23:37.744Z,16.40
2022-09-16T11:26:12.374Z,16.80
2022-09-16T11:28:48.052Z,17.30
2022-09-16T11:31:35.942Z,17.50
2022-09-16T11:34:28.026Z,17.60
2022-09-16T11:37:07.831Z,17.80
2022-09-16T11:39:49.732Z,17.80
2022-09-16T11:42:28.746Z,17.70
2022-09-16T11:45:04.524Z,17.90
2022-09-16T11:47:40.693Z,18.10
2022-09-16T11:50:13.517Z,18.00
2022-09-16T11:53:05.354Z,17.70
2022-09-16T11:55:35.808Z,17.70
2022-09-16T11:58:27.402Z,18.00
2022-09-16T12:00:55.838Z,18.30
2022-09-16T12:03:48.390Z,18.40
2022-09-16T12:06:17.807Z,18.40
2022-09-16T12:09:01.208Z,18.40
2022-09-16T12:11:44.610Z,18.30
2022-09-16T12:14:14.799Z,18.40
2022-09-16T12:16:41.425Z,18.60
2022-09-16T12:19:20.826Z,18.90
2022-09-16T12:21:48.868Z,18.80
2022-09-16T12:24:23.339Z,18.70
2022-09-16T12:27:01.756Z,18.50
2022-09-16T12:29:44.570Z,18.10
2022-09-16T12:32:37.851Z,18.00
2022-09-16T12:35:16.385Z,17.70
2022-09-16T12:37:50.424Z,17.50
2022-09-16T12:40:24.531Z,17.20
2022-09-16T12:43:00.245Z,17.50
2022-09-16T12:45:52.117Z,18.20
2022-09-16T12:48:48.268Z,19.30
2022-09-16T12:51:32.926Z,19.40
2022-09-16T12:54:10.007Z,19.50
2022-09-16T12:57:08.429Z,19.80
2022-09-16T13:00:03.128Z,20.10
2022-09-16T13:02:47.215Z,20.30
2022-09-16T13:05:34.595Z,20.60
2022-09-16T13:08:04.374Z,20.70
2022-09-16T13:10:57.761Z,20.50
2022-09-16T13:13:36.371Z,19.90
2022-09-16T13:16:04.669Z,19.30
2022-09-16T13:18:42.139Z,18.70
2022-09-16T13:21:20.877Z,18.90
2022-09-16T13:23:48.843Z,19.20
2022-09-16T13:26:15.666Z,19.50
2022-09-16T13:28:43.750Z,19.80
2022-09-16T13:31:17.763Z,19.20
2022-09-16T13:33:48.690Z,18.80
2022-09-16T13:36:22.405Z,19.00
2022-09-16T13:38:53.493Z,18.90
2022-09-16T13:41:29.333Z,18.80
2022-09-16T13:43:56.131Z,18.40
2022-09-16T13:46:31.540Z,18.10
2022-09-16T13:49:05.098Z,17.80
2022-09-16T13:51:36.183Z,17.70
2022-09-16T13:54:04.353Z,17.80
2022-09-16T13:56:41.098Z,17.70
2022-09-16T13:59:22.806Z,17.70
2022-09-16T14:02:18.144Z,17.60
2022-09-16T14:05:09.887Z,17.60
2022-09-16T14:07:49.992Z,19.00
2022-09-16T14:10:31.140Z,20.20
2022-09-16T14:13:10.988Z,20.90
2022-09-16T14:15:43.675Z,21.60
2022-09-16T14:18:14.374Z,21.80
2022-09-16T14:20:55.911Z,22.00
2022-09-16T14:23:24.071Z,21.80
2022-09-16T14:25:52.298Z,21.30
2022-09-16T14:28:24.303Z,20.80
2022-09-16T14:30:53.034Z,19.90
2022-09-16T14:33:34.752Z,19.50
2022-09-16T14:36:01.684Z,19.60
2022-09-16T14:38:46.862Z,19.50
2022-09-16T14:41:19.697Z,19.40
2022-09-16T14:43:46.506Z,19.40
2022-09-16T14:46:13.199Z,19.50
2022-09-16T14:48:39.995Z,19.20
2022-09-16T14:51:14.615Z,19.70
2022-09-16T14:53:55.480Z,20.60
2022-09-16T14:56:29.116Z,21.40
2022-09-16T14:58:56.488Z,21.80
2022-09-16T15:01:28.714Z,22.40
2022-09-16T15:03:59.322Z,22.70
2022-09-16T15:06:28.893Z,22.30
2022-09-16T15:09:18.238Z,22.00
2022-09-16T15:11:48.924Z,22.10
2022-09-16T15:14:17.223Z,22.90
2022-09-16T15:16:46.537Z,23.30
2022-09-16T15:19:26.206Z,23.60
2022-09-16T15:21:53.196Z,23.40
2022-09-16T15:24:27.703Z,23.30
2022-09-16T15:26:54.733Z,23.30
2022-09-16T15:29:24.380Z,23.30
2022-09-16T15:31:51.272Z,23.50
2022-09-16T15:34:23.890Z,23.80
2022-09-16T15:36:58.049Z,24.10
2022-09-16T15:39:26.770Z,24.20
2022-09-16T15:42:10.827Z,24.40
2022-09-16T15:44:38.606Z,24.60
2022-09-16T15:47:05.645Z,23.30
2022-09-16T15:49:34.348Z,23.10
2022-09-16T15:52:08.771Z,22.50
2022-09-16T15:54:54.129Z,21.20
2022-09-16T15:57:28.571Z,20.10
2022-09-16T16:00:07.309Z,19.70
2022-09-16T16:02:43.358Z,20.50
2022-09-16T16:05:12.117Z,21.10
2022-09-16T16:07:47.006Z,21.50
2022-09-16T16:10:21.018Z,22.10
2022-09-16T16:12:51.791Z,22.80
2022-09-16T16:15:23.751Z,23.10
2022-09-16T16:17:50.647Z,23.20
2022-09-16T16:20:18.294Z,23.00
2022-09-16T16:22:45.399Z,22.30
2022-09-16T16:25:13.635Z,22.70
2022-09-16T16:27:40.516Z,22.70
2022-09-16T16:30:07.827Z,21.60
2022-09-16T16:32:35.039Z,22.00
2022-09-16T16:35:02.222Z,22.50
2022-09-16T16:37:45.383Z,22.60
2022-09-16T16:40:14.266Z,23.00
2022-09-16T16:42:44.129Z,23.40
2022-09-16T16:45:14.572Z,23.20
2022-09-16T16:47:42.053Z,23.20
2022-09-16T16:50:09.211Z,23.10
2022-09-16T16:52:36.148Z,22.30
2022-09-16T16:55:02.891Z,21.60
2022-09-16T16:57:29.744Z,21.80
2022-09-16T16:59:56.521Z,21.60
2022-09-16T17:02:23.873Z,21.50
2022-09-16T17:04:50.903Z,21.00
2022-09-16T17:07:26.643Z,21.20
2022-09-16T17:09:54.644Z,20.80
2022-09-16T17:12:21.454Z,20.30
2022-09-16T17:14:48.221Z,20.30
2022-09-16T17:17:14.870Z,20.10
2022-09-16T17:19:41.565Z,19.60
2022-09-16T17:22:08.327Z,18.90
2022-09-16T17:24:35.140Z,18.40
2022-09-16T17:27:02.079Z,18.00
2022-09-16T17:29:28.859Z,17.70
2022-09-16T17:31:57.146Z,17.40
2022-09-16T17:34:26.429Z,17.30
2022-09-16T17:36:53.293Z,17.10
2022-09-16T17:39:20.882Z,16.70
2022-09-16T17:41:48.889Z,16.50
2022-09-16T17:44:15.888Z,16.30
2022-09-16T17:46:42.978Z,16.20
2022-09-16T17:49:21.628Z,15.90
2022-09-16T17:51:49.270Z,15.80
2022-09-16T17:54:16.155Z,15.70
2022-09-16T17:56:43.075Z,15.60
2022-09-16T17:59:10.901Z,15.40
2022-09-16T18:01:38.007Z,15.30
2022-09-16T18:04:04.814Z,15.10
2022-09-16T18:06:35.546Z,15.00
2022-09-16T18:09:03.716Z,14.90
2022-09-16T18:11:30.475Z,14.90
2022-09-16T18:13:58.495Z,14.80
2022-09-16T18:16:25.634Z,14.70
2022-09-16T18:18:54.186Z,14.60
2022-09-16T18:21:21.475Z,14.50
2022-09-16T18:23:51.443Z,14.40
2022-09-16T18:26:18.900Z,14.40
2022-09-16T18:29:08.683Z,14.30
2022-09-16T18:31:33.768Z,14.30
2022-09-16T18:34:00.521Z,14.20
2022-09-16T18:36:28.471Z,14.10
2022-09-16T18:38:57.342Z,14.10
2022-09-16T18:41:25.891Z,14.00
2022-09-16T18:44:03.622Z,13.90
2022-09-16T18:46:31.938Z,13.90
2022-09-16T18:48:58.965Z,13.80
2022-09-16T18:51:26.562Z,13.70
2022-09-16T18:53:55.529Z,13.70
2022-09-16T18:56:22.972Z,13.70
2022-09-16T18:59:16.818Z,13.70
2022-09-16T19:01:37.804Z,13.60
2022-09-16T19:04:06.556Z,13.60
2022-09-16T19:06:37.889Z,13.50
2022-09-16T19:09:06.477Z,13.50
2022-09-16T19:11:33.771Z,13.40
2022-09-16T19:14:00.632Z,13.40
2022-09-16T19:16:27.308Z,13.40
2022-09-16T19:18:54.886Z,13.30
2022-09-16T19:21:22.377Z,13.30
2022-09-16T19:23:53.506Z,13.30
2022-09-16T19:26:20.271Z,13.30
2022-09-16T19:28:47.060Z,13.30
2022-09-16T19:31:14.378Z,13.20
2022-09-16T19:33:41.553Z,13.20
2022-09-16T19:36:19.123Z,13.20
2022-09-16T19:38:46.440Z,13.10
2022-09-16T19:41:13.176Z,13.10
2022-09-16T19:43:40.091Z,13.00
2022-09-16T19:46:17.013Z,13.00
2022-09-16T19:48:46.123Z,12.90
2022-09-16T19:51:14.051Z,12.90
2022-09-16T19:53:41.498Z,12.90
2022-09-16T19:56:27.985Z,12.80
2022-09-16T19:58:54.800Z,12.80
2022-09-16T20:01:24.119Z,12.80
2022-09-16T20:03:51.087Z,12.70
2022-09-16T20:06:19.886Z,12.70
2022-09-16T20:08:47.271Z,12.60
2022-09-16T20:11:18.548Z,12.60
2022-09-16T20:13:56.906Z,12.60
2022-09-16T20:16:25.743Z,12.50
2022-09-16T20:18:52.650Z,12.40
2022-09-16T20:21:21.336Z,12.30
2022-09-16T20:23:48.139Z,12.30
2022-09-16T20:26:19.586Z,12.20
2022-09-16T20:28:55.842Z,12.20
2022-09-16T20:31:24.301Z,12.20
2022-09-16T20:33:51.484Z,12.20
2022-09-16T20:36:19.688Z,12.20
2022-09-16T20:38:46.691Z,12.10
2022-09-16T20:41:18.511Z,12.10
2022-09-16T20:43:45.494Z,12.10
2022-09-16T20:46:20.314Z,12.10
2022-09-16T20:48:47.197Z,12.00
2022-09-16T20:51:15.692Z,12.00
2022-09-16T20:53:42.771Z,11.90
2022-09-16T20:56:14.547Z,11.90
2022-09-16T20:58:42.345Z,11.90
2022-09-16T21:01:12.371Z,11.90
2022-09-16T21:03:39.567Z,11.90
2022-09-16T21:06:08.000Z,11.90
2022-09-16T21:08:37.425Z,11.80
2022-09-16T21:11:11.540Z,11.80
2022-09-16T21:13:39.188Z,11.80
2022-09-16T21:16:07.761Z,11.80
2022-09-16T21:18:34.538Z,11.80
2022-09-16T21:21:05.772Z,11.70
2022-09-16T21:23:33.244Z,11.70
2022-09-16T21:26:07.590Z,11.60
2022-09-16T21:28:54.201Z,11.60
2022-09-16T21:31:24.081Z,11.60
2022-09-16T21:33:53.814Z,11.50
2022-09-16T21:36:21.747Z,11.50
2022-09-16T21:38:48.697Z,11.50
2022-09-16T21:41:17.480Z,11.50
2022-09-16T21:43:45.588Z,11.50
2022-09-16T21:46:12.952Z,11.50
2022-09-16T21:48:39.814Z,11.50
2022-09-16T21:51:08.658Z,11.50
2022-09-16T21:53:37.316Z,11.40
2022-09-16T21:56:04.568Z,11.40
2022-09-16T21:58:31.636Z,11.30
2022-09-16T22:01:17.506Z,11.30
2022-09-16T22:03:45.558Z,11.30
2022-09-16T22:06:13.979Z,11.20
2022-09-16T22:08:48.075Z,11.20
2022-09-16T22:11:16.787Z,11.20
2022-09-16T22:13:43.495Z,11.20
2022-09-16T22:16:14.871Z,11.20
2022-09-16T22:18:41.842Z,11.10
2022-09-16T22:21:14.881Z,11.10
2022-09-16T22:23:41.617Z,11.10
2022-09-16T22:26:10.717Z,11.10
2022-09-16T22:28:37.551Z,11.00
2022-09-16T22:31:17.775Z,11.00
2022-09-16T22:33:45.699Z,11.00
2022-09-16T22:36:14.063Z,11.00
2022-09-16T22:38:44.560Z,11.00
2022-09-16T22:41:11.274Z,10.90
2022-09-16T22:43:39.150Z,10.90
2022-09-16T22:46:16.642Z,10.90
2022-09-16T22:48:43.951Z,10.90
2022-09-16T22:51:11.513Z,10.80
2022-09-16T22:53:38.369Z,10.80
2022-09-16T22:56:35.125Z,10.80
2022-09-16T22:59:02.910Z,10.80
2022-09-16T23:01:34.910Z,10.80
2022-09-16T23:04:02.983Z,10.80
2022-09-16T23:06:30.527Z,10.80
2022-09-16T23:08:57.293Z,10.80
2022-09-16T23:11:25.371Z,10.90
2022-09-16T23:13:52.935Z,10.80
2022-09-16T23:16:31.043Z,10.80
2022-09-16T23:18:59.648Z,10.80
2022-09-16T23:21:26.512Z,10.80
2022-09-16T23:23:54.685Z,10.80
2022-09-16T23:26:23.326Z,10.80
2022-09-16T23:28:55.853Z,10.80
2022-09-16T23:31:24.318Z,10.70
2022-09-16T23:33:51.017Z,10.70
2022-09-16T23:36:18.095Z,10.70
2022-09-16T23:38:45.955Z,10.70
2022-09-16T23:41:15.127Z,10.70
2022-09-16T23:43:42.352Z,10.70
2022-09-16T23:46:10.049Z,10.70
2022-09-16T23:48:37.529Z,10.70
2022-09-16T23:51:04.955Z,10.70
2022-09-16T23:53:32.190Z,10.60
2022-09-16T23:55:58.900Z,10.60
2022-09-16T23:58:25.618Z,10.60
